sensor_id;sensor_type;location;lat;lon;timestamp;temperature;humidity
25346;DHT22;13300;51.032;3.710;2022-10-13T00:01:10;14.10;99.90
25346;DHT22;13300;51.032;3.710;2022-10-13T00:03:40;14.00;99.90
25346;DHT22;13300;51.032;3.710;2022-10-13T00:06:08;14.10;99.90
25346;DHT22;13300;51.032;3.710;2022-10-13T00:08:35;13.90;99.90
25346;DHT22;13300;51.032;3.710;2022-10-13T00:11:07;13.80;99.90
25346;DHT22;13300;51.032;3.710;2022-10-13T00:13:33;13.80;99.90
25346;DHT22;13300;51.032;3.710;2022-10-13T00:16:01;13.80;99.90
25346;DHT22;13300;51.032;3.710;2022-10-13T00:18:27;13.80;99.90
25346;DHT22;13300;51.032;3.710;2022-10-13T00:20:52;13.80;99.90
25346;DHT22;13300;51.032;3.710;2022-10-13T00:23:18;13.70;99.90
25346;DHT22;13300;51.032;3.710;2022-10-13T00:25:46;13.70;99.90
25346;DHT22;13300;51.032;3.710;2022-10-13T00:28:13;13.70;99.90
25346;DHT22;13300;51.032;3.710;2022-10-13T00:30:40;13.70;99.90
25346;DHT22;13300;51.032;3.710;2022-10-13T00:33:06;13.70;99.90
25346;DHT22;13300;51.032;3.710;2022-10-13T00:35:32;13.70;99.90
25346;DHT22;13300;51.032;3.710;2022-10-13T00:37:58;13.80;99.90
25346;DHT22;13300;51.032;3.710;2022-10-13T00:40:24;13.70;99.90
25346;DHT22;13300;51.032;3.710;2022-10-13T00:42:49;13.80;99.90
25346;DHT22;13300;51.032;3.710;2022-10-13T00:45:26;13.90;99.90
25346;DHT22;13300;51.032;3.710;2022-10-13T00:47:57;14.00;99.90
25346;DHT22;13300;51.032;3.710;2022-10-13T00:50:24;14.00;99.90
25346;DHT22;13300;51.032;3.710;2022-10-13T00:52:52;14.00;99.90
25346;DHT22;13300;51.032;3.710;2022-10-13T00:55:21;13.90;99.90
25346;DHT22;13300;51.032;3.710;2022-10-13T00:57:49;14.00;99.90
25346;DHT22;13300;51.032;3.710;2022-10-13T01:00:24;14.00;99.90
25346;DHT22;13300;51.032;3.710;2022-10-13T01:02:50;13.90;99.90
25346;DHT22;13300;51.032;3.710;2022-10-13T01:05:17;13.90;99.90
25346;DHT22;13300;51.032;3.710;2022-10-13T01:07:45;13.90;99.90
25346;DHT22;13300;51.032;3.710;2022-10-13T01:10:20;14.00;99.90
25346;DHT22;13300;51.032;3.710;2022-10-13T01:13:22;14.20;99.90
25346;DHT22;13300;51.032;3.710;2022-10-13T01:15:54;14.10;99.90
25346;DHT22;13300;51.032;3.710;2022-10-13T01:24:01;13.90;99.90
25346;DHT22;13300;51.032;3.710;2022-10-13T01:27:04;13.90;99.90
25346;DHT22;13300;51.032;3.710;2022-10-13T01:32:21;13.70;99.90
25346;DHT22;13300;51.032;3.710;2022-10-13T01:37:45;13.70;99.90
25346;DHT22;13300;51.032;3.710;2022-10-13T01:45:31;13.50;99.90
25346;DHT22;13300;51.032;3.710;2022-10-13T01:47:59;13.40;99.90
25346;DHT22;13300;51.032;3.710;2022-10-13T01:50:27;13.50;99.90
25346;DHT22;13300;51.032;3.710;2022-10-13T01:52:53;13.50;99.90
25346;DHT22;13300;51.032;3.710;2022-10-13T01:55:20;13.60;99.90
25346;DHT22;13300;51.032;3.710;2022-10-13T01:57:46;13.70;99.90
25346;DHT22;13300;51.032;3.710;2022-10-13T02:00:14;13.60;99.90
25346;DHT22;13300;51.032;3.710;2022-10-13T02:03:10;13.70;99.90
25346;DHT22;13300;51.032;3.710;2022-10-13T02:05:56;13.60;99.90
25346;DHT22;13300;51.032;3.710;2022-10-13T02:11:17;13.60;99.90
25346;DHT22;13300;51.032;3.710;2022-10-13T02:16:16;13.50;99.90
25346;DHT22;13300;51.032;3.710;2022-10-13T02:18:45;13.50;99.90
25346;DHT22;13300;51.032;3.710;2022-10-13T02:21:11;13.70;99.90
25346;DHT22;13300;51.032;3.710;2022-10-13T02:23:37;13.70;99.90
25346;DHT22;13300;51.032;3.710;2022-10-13T02:26:03;13.60;99.90
25346;DHT22;13300;51.032;3.710;2022-10-13T02:28:29;13.60;99.90
25346;DHT22;13300;51.032;3.710;2022-10-13T02:30:55;13.60;99.90
25346;DHT22;13300;51.032;3.710;2022-10-13T02:33:21;13.50;99.90
25346;DHT22;13300;51.032;3.710;2022-10-13T02:35:47;13.60;99.90
25346;DHT22;13300;51.032;3.710;2022-10-13T02:38:13;13.50;99.90
25346;DHT22;13300;51.032;3.710;2022-10-13T02:40:39;13.60;99.90
25346;DHT22;13300;51.032;3.710;2022-10-13T02:43:04;13.50;99.90
25346;DHT22;13300;51.032;3.710;2022-10-13T02:45:30;13.40;99.90
25346;DHT22;13300;51.032;3.710;2022-10-13T02:47:56;13.50;99.90
25346;DHT22;13300;51.032;3.710;2022-10-13T02:50:22;13.70;99.90
25346;DHT22;13300;51.032;3.710;2022-10-13T02:52:48;13.70;99.90
25346;DHT22;13300;51.032;3.710;2022-10-13T02:55:14;13.80;99.90
25346;DHT22;13300;51.032;3.710;2022-10-13T02:57:40;13.80;99.90
25346;DHT22;13300;51.032;3.710;2022-10-13T03:00:06;13.90;99.90
25346;DHT22;13300;51.032;3.710;2022-10-13T03:02:32;14.00;99.90
25346;DHT22;13300;51.032;3.710;2022-10-13T03:04:58;13.80;99.90
25346;DHT22;13300;51.032;3.710;2022-10-13T03:07:24;13.70;99.90
25346;DHT22;13300;51.032;3.710;2022-10-13T03:09:50;13.60;99.90
25346;DHT22;13300;51.032;3.710;2022-10-13T03:12:15;13.70;99.90
25346;DHT22;13300;51.032;3.710;2022-10-13T03:14:41;13.70;99.90
25346;DHT22;13300;51.032;3.710;2022-10-13T03:17:08;13.90;99.90
25346;DHT22;13300;51.032;3.710;2022-10-13T03:19:33;14.00;99.90
25346;DHT22;13300;51.032;3.710;2022-10-13T03:21:59;14.00;99.90
25346;DHT22;13300;51.032;3.710;2022-10-13T03:24:25;14.00;99.90
25346;DHT22;13300;51.032;3.710;2022-10-13T03:26:51;14.10;99.90
25346;DHT22;13300;51.032;3.710;2022-10-13T03:29:17;14.20;99.90
25346;DHT22;13300;51.032;3.710;2022-10-13T03:31:43;14.20;99.90
25346;DHT22;13300;51.032;3.710;2022-10-13T03:34:10;14.10;99.90
25346;DHT22;13300;51.032;3.710;2022-10-13T03:36:36;14.20;99.90
25346;DHT22;13300;51.032;3.710;2022-10-13T03:39:02;14.30;99.90
25346;DHT22;13300;51.032;3.710;2022-10-13T03:41:28;14.30;99.90
25346;DHT22;13300;51.032;3.710;2022-10-13T03:43:54;14.30;99.90
25346;DHT22;13300;51.032;3.710;2022-10-13T03:46:26;14.30;99.90
25346;DHT22;13300;51.032;3.710;2022-10-13T03:48:53;14.10;99.90
25346;DHT22;13300;51.032;3.710;2022-10-13T03:51:19;14.00;99.90
25346;DHT22;13300;51.032;3.710;2022-10-13T03:53:47;13.90;99.90
25346;DHT22;13300;51.032;3.710;2022-10-13T03:56:19;14.00;99.90
25346;DHT22;13300;51.032;3.710;2022-10-13T03:58:45;14.10;99.90
25346;DHT22;13300;51.032;3.710;2022-10-13T04:01:12;14.00;99.90
25346;DHT22;13300;51.032;3.710;2022-10-13T04:03:38;13.80;99.90
25346;DHT22;13300;51.032;3.710;2022-10-13T04:06:05;13.90;99.90
25346;DHT22;13300;51.032;3.710;2022-10-13T04:08:32;13.90;99.90
25346;DHT22;13300;51.032;3.710;2022-10-13T04:13:25;13.80;99.90
25346;DHT22;13300;51.032;3.710;2022-10-13T04:15:50;13.70;99.90
25346;DHT22;13300;51.032;3.710;2022-10-13T04:18:16;13.80;99.90
25346;DHT22;13300;51.032;3.710;2022-10-13T04:20:42;13.60;99.90
25346;DHT22;13300;51.032;3.710;2022-10-13T04:23:08;13.70;99.90
25346;DHT22;13300;51.032;3.710;2022-10-13T04:25:35;13.70;99.90
25346;DHT22;13300;51.032;3.710;2022-10-13T04:28:02;13.70;99.90
25346;DHT22;13300;51.032;3.710;2022-10-13T04:30:28;13.90;99.90
25346;DHT22;13300;51.032;3.710;2022-10-13T04:32:54;14.00;99.90
25346;DHT22;13300;51.032;3.710;2022-10-13T04:35:19;14.00;99.90
25346;DHT22;13300;51.032;3.710;2022-10-13T04:37:45;13.90;99.90
25346;DHT22;13300;51.032;3.710;2022-10-13T04:40:11;13.90;99.90
25346;DHT22;13300;51.032;3.710;2022-10-13T04:42:37;14.00;99.90
25346;DHT22;13300;51.032;3.710;2022-10-13T04:45:03;14.00;99.90
25346;DHT22;13300;51.032;3.710;2022-10-13T04:47:29;14.00;99.90
25346;DHT22;13300;51.032;3.710;2022-10-13T04:49:55;13.90;99.90
25346;DHT22;13300;51.032;3.710;2022-10-13T04:52:20;13.80;99.90
25346;DHT22;13300;51.032;3.710;2022-10-13T04:54:46;13.70;99.90
25346;DHT22;13300;51.032;3.710;2022-10-13T04:57:11;13.80;99.90
25346;DHT22;13300;51.032;3.710;2022-10-13T04:59:37;14.10;99.90
25346;DHT22;13300;51.032;3.710;2022-10-13T05:02:03;14.00;99.90
25346;DHT22;13300;51.032;3.710;2022-10-13T05:04:28;14.00;99.90
25346;DHT22;13300;51.032;3.710;2022-10-13T05:06:54;13.90;99.90
25346;DHT22;13300;51.032;3.710;2022-10-13T05:09:20;13.80;99.90
25346;DHT22;13300;51.032;3.710;2022-10-13T05:11:46;13.80;99.90
25346;DHT22;13300;51.032;3.710;2022-10-13T05:14:12;13.90;99.90
25346;DHT22;13300;51.032;3.710;2022-10-13T05:16:38;14.00;99.90
25346;DHT22;13300;51.032;3.710;2022-10-13T05:19:04;13.80;99.90
25346;DHT22;13300;51.032;3.710;2022-10-13T05:21:30;13.90;99.90
25346;DHT22;13300;51.032;3.710;2022-10-13T05:23:56;13.90;99.90
25346;DHT22;13300;51.032;3.710;2022-10-13T05:26:24;14.00;99.90
25346;DHT22;13300;51.032;3.710;2022-10-13T05:28:59;13.90;99.90
25346;DHT22;13300;51.032;3.710;2022-10-13T05:31:27;13.80;99.90
25346;DHT22;13300;51.032;3.710;2022-10-13T05:33:54;13.70;99.90
25346;DHT22;13300;51.032;3.710;2022-10-13T05:36:21;13.60;99.90
25346;DHT22;13300;51.032;3.710;2022-10-13T05:38:56;13.60;99.90
25346;DHT22;13300;51.032;3.710;2022-10-13T05:41:23;13.50;99.90
25346;DHT22;13300;51.032;3.710;2022-10-13T05:43:51;13.60;99.90
25346;DHT22;13300;51.032;3.710;2022-10-13T05:46:17;13.60;99.90
25346;DHT22;13300;51.032;3.710;2022-10-13T05:48:43;13.60;99.90
25346;DHT22;13300;51.032;3.710;2022-10-13T05:51:13;13.70;99.90
25346;DHT22;13300;51.032;3.710;2022-10-13T05:53:42;13.70;99.90
25346;DHT22;13300;51.032;3.710;2022-10-13T05:56:13;13.70;99.90
25346;DHT22;13300;51.032;3.710;2022-10-13T05:58:43;13.60;99.90
25346;DHT22;13300;51.032;3.710;2022-10-13T06:01:10;13.80;99.90
25346;DHT22;13300;51.032;3.710;2022-10-13T06:03:38;13.80;99.90
25346;DHT22;13300;51.032;3.710;2022-10-13T06:06:07;13.80;99.90
25346;DHT22;13300;51.032;3.710;2022-10-13T06:08:33;13.70;99.90
25346;DHT22;13300;51.032;3.710;2022-10-13T06:10:59;13.90;99.90
25346;DHT22;13300;51.032;3.710;2022-10-13T06:13:28;13.90;99.90
25346;DHT22;13300;51.032;3.710;2022-10-13T06:15:53;13.90;99.90
25346;DHT22;13300;51.032;3.710;2022-10-13T06:18:19;13.70;99.90
25346;DHT22;13300;51.032;3.710;2022-10-13T06:20:45;13.70;99.90
25346;DHT22;13300;51.032;3.710;2022-10-13T06:23:11;13.60;99.90
25346;DHT22;13300;51.032;3.710;2022-10-13T06:25:36;13.50;99.90
25346;DHT22;13300;51.032;3.710;2022-10-13T06:28:03;13.50;99.90
25346;DHT22;13300;51.032;3.710;2022-10-13T06:30:28;13.50;99.90
25346;DHT22;13300;51.032;3.710;2022-10-13T06:32:54;13.60;99.90
25346;DHT22;13300;51.032;3.710;2022-10-13T06:35:21;13.70;99.90
25346;DHT22;13300;51.032;3.710;2022-10-13T06:37:47;13.50;99.90
25346;DHT22;13300;51.032;3.710;2022-10-13T06:40:14;13.50;99.90
25346;DHT22;13300;51.032;3.710;2022-10-13T06:42:40;13.60;99.90
25346;DHT22;13300;51.032;3.710;2022-10-13T06:45:06;13.60;99.90
25346;DHT22;13300;51.032;3.710;2022-10-13T06:47:32;13.50;99.90
25346;DHT22;13300;51.032;3.710;2022-10-13T06:49:57;13.40;99.90
25346;DHT22;13300;51.032;3.710;2022-10-13T06:52:23;13.40;99.90
25346;DHT22;13300;51.032;3.710;2022-10-13T06:54:49;13.50;99.90
25346;DHT22;13300;51.032;3.710;2022-10-13T06:57:14;13.50;99.90
25346;DHT22;13300;51.032;3.710;2022-10-13T06:59:43;13.50;99.90
25346;DHT22;13300;51.032;3.710;2022-10-13T07:02:10;13.50;99.90
25346;DHT22;13300;51.032;3.710;2022-10-13T07:04:35;13.50;99.90
25346;DHT22;13300;51.032;3.710;2022-10-13T07:07:01;13.60;99.90
25346;DHT22;13300;51.032;3.710;2022-10-13T07:09:27;13.60;99.90
25346;DHT22;13300;51.032;3.710;2022-10-13T07:11:53;13.80;99.90
25346;DHT22;13300;51.032;3.710;2022-10-13T07:14:19;14.00;99.90
25346;DHT22;13300;51.032;3.710;2022-10-13T07:16:46;13.80;99.90
25346;DHT22;13300;51.032;3.710;2022-10-13T07:19:12;13.90;99.90
25346;DHT22;13300;51.032;3.710;2022-10-13T07:21:38;13.90;99.90
25346;DHT22;13300;51.032;3.710;2022-10-13T07:24:04;13.90;99.90
25346;DHT22;13300;51.032;3.710;2022-10-13T07:26:30;13.90;99.90
25346;DHT22;13300;51.032;3.710;2022-10-13T07:28:58;13.80;99.90
25346;DHT22;13300;51.032;3.710;2022-10-13T07:31:24;13.80;99.90
25346;DHT22;13300;51.032;3.710;2022-10-13T07:33:50;13.80;99.90
25346;DHT22;13300;51.032;3.710;2022-10-13T07:36:17;13.80;99.90
25346;DHT22;13300;51.032;3.710;2022-10-13T07:38:43;13.70;99.90
25346;DHT22;13300;51.032;3.710;2022-10-13T07:41:10;13.70;99.90
25346;DHT22;13300;51.032;3.710;2022-10-13T07:43:36;13.80;99.90
25346;DHT22;13300;51.032;3.710;2022-10-13T07:46:02;14.00;99.90
25346;DHT22;13300;51.032;3.710;2022-10-13T07:48:32;14.10;99.90
25346;DHT22;13300;51.032;3.710;2022-10-13T07:50:58;13.90;99.90
25346;DHT22;13300;51.032;3.710;2022-10-13T07:53:24;13.90;99.90
25346;DHT22;13300;51.032;3.710;2022-10-13T07:55:49;14.10;99.90
25346;DHT22;13300;51.032;3.710;2022-10-13T07:58:15;14.20;99.90
25346;DHT22;13300;51.032;3.710;2022-10-13T08:00:41;14.30;99.90
25346;DHT22;13300;51.032;3.710;2022-10-13T08:03:06;14.40;99.90
25346;DHT22;13300;51.032;3.710;2022-10-13T08:05:32;14.60;99.90
25346;DHT22;13300;51.032;3.710;2022-10-13T08:07:58;14.80;99.90
25346;DHT22;13300;51.032;3.710;2022-10-13T08:10:24;14.80;99.90
25346;DHT22;13300;51.032;3.710;2022-10-13T08:12:49;14.70;99.90
25346;DHT22;13300;51.032;3.710;2022-10-13T08:15:15;14.70;99.90
25346;DHT22;13300;51.032;3.710;2022-10-13T08:17:41;14.60;99.90
25346;DHT22;13300;51.032;3.710;2022-10-13T08:20:07;14.70;99.90
25346;DHT22;13300;51.032;3.710;2022-10-13T08:22:33;14.60;99.90
25346;DHT22;13300;51.032;3.710;2022-10-13T08:24:59;14.70;99.90
25346;DHT22;13300;51.032;3.710;2022-10-13T08:27:27;14.60;99.90
25346;DHT22;13300;51.032;3.710;2022-10-13T08:29:53;14.50;99.90
25346;DHT22;13300;51.032;3.710;2022-10-13T08:32:20;14.80;99.90
25346;DHT22;13300;51.032;3.710;2022-10-13T08:34:47;14.70;99.90
25346;DHT22;13300;51.032;3.710;2022-10-13T08:37:17;14.60;99.90
25346;DHT22;13300;51.032;3.710;2022-10-13T08:39:43;14.60;99.90
25346;DHT22;13300;51.032;3.710;2022-10-13T08:42:17;14.50;99.90
25346;DHT22;13300;51.032;3.710;2022-10-13T08:44:59;14.80;99.90
25346;DHT22;13300;51.032;3.710;2022-10-13T08:47:48;14.90;99.90
25346;DHT22;13300;51.032;3.710;2022-10-13T08:50:18;15.10;99.90
25346;DHT22;13300;51.032;3.710;2022-10-13T08:52:54;15.20;99.90
25346;DHT22;13300;51.032;3.710;2022-10-13T08:55:41;15.40;99.90
25346;DHT22;13300;51.032;3.710;2022-10-13T08:58:28;15.50;99.90
25346;DHT22;13300;51.032;3.710;2022-10-13T09:01:23;15.40;99.90
25346;DHT22;13300;51.032;3.710;2022-10-13T09:04:12;15.50;99.90
25346;DHT22;13300;51.032;3.710;2022-10-13T09:06:44;15.20;99.90
25346;DHT22;13300;51.032;3.710;2022-10-13T09:09:12;15.00;99.90
25346;DHT22;13300;51.032;3.710;2022-10-13T09:11:44;14.80;99.90
25346;DHT22;13300;51.032;3.710;2022-10-13T09:14:18;14.80;99.90
25346;DHT22;13300;51.032;3.710;2022-10-13T09:16:45;14.80;99.90
25346;DHT22;13300;51.032;3.710;2022-10-13T09:19:16;14.70;99.90
25346;DHT22;13300;51.032;3.710;2022-10-13T09:21:44;14.70;99.90
25346;DHT22;13300;51.032;3.710;2022-10-13T09:24:15;14.60;99.90
25346;DHT22;13300;51.032;3.710;2022-10-13T09:26:42;14.60;99.90
25346;DHT22;13300;51.032;3.710;2022-10-13T09:29:23;14.70;99.90
25346;DHT22;13300;51.032;3.710;2022-10-13T09:31:49;14.80;99.90
25346;DHT22;13300;51.032;3.710;2022-10-13T09:34:23;14.70;99.90
25346;DHT22;13300;51.032;3.710;2022-10-13T09:36:57;14.70;99.90
25346;DHT22;13300;51.032;3.710;2022-10-13T09:39:23;14.90;99.90
25346;DHT22;13300;51.032;3.710;2022-10-13T09:41:49;15.00;99.90
25346;DHT22;13300;51.032;3.710;2022-10-13T09:44:27;15.30;99.90
25346;DHT22;13300;51.032;3.710;2022-10-13T09:46:58;15.30;99.90
25346;DHT22;13300;51.032;3.710;2022-10-13T09:49:32;15.50;99.90
25346;DHT22;13300;51.032;3.710;2022-10-13T09:57:15;15.50;99.90
25346;DHT22;13300;51.032;3.710;2022-10-13T09:59:50;15.50;99.90
25346;DHT22;13300;51.032;3.710;2022-10-13T10:03:28;15.50;99.90
25346;DHT22;13300;51.032;3.710;2022-10-13T10:08:45;15.20;99.90
25346;DHT22;13300;51.032;3.710;2022-10-13T10:22:39;15.00;99.90
25346;DHT22;13300;51.032;3.710;2022-10-13T10:25:11;15.00;99.90
25346;DHT22;13300;51.032;3.710;2022-10-13T10:30:55;15.40;99.90
25346;DHT22;13300;51.032;3.710;2022-10-13T10:39:30;14.90;99.90
25346;DHT22;13300;51.032;3.710;2022-10-13T10:42:19;14.90;99.90
25346;DHT22;13300;51.032;3.710;2022-10-13T10:44:53;15.10;99.90
25346;DHT22;13300;51.032;3.710;2022-10-13T10:47:41;15.30;99.90
25346;DHT22;13300;51.032;3.710;2022-10-13T10:50:12;15.70;99.90
25346;DHT22;13300;51.032;3.710;2022-10-13T10:55:32;15.90;99.90
25346;DHT22;13300;51.032;3.710;2022-10-13T11:00:52;15.30;99.90
25346;DHT22;13300;51.032;3.710;2022-10-13T11:03:53;15.40;99.90
25346;DHT22;13300;51.032;3.710;2022-10-13T11:06:34;15.60;99.90
25346;DHT22;13300;51.032;3.710;2022-10-13T11:09:00;15.50;99.90
25346;DHT22;13300;51.032;3.710;2022-10-13T11:13:57;15.40;99.90
25346;DHT22;13300;51.032;3.710;2022-10-13T11:16:34;15.40;99.90
25346;DHT22;13300;51.032;3.710;2022-10-13T11:19:08;15.50;99.90
25346;DHT22;13300;51.032;3.710;2022-10-13T11:22:10;15.60;99.90
25346;DHT22;13300;51.032;3.710;2022-10-13T11:46:22;15.10;99.90
25346;DHT22;13300;51.032;3.710;2022-10-13T11:57:19;16.00;99.90
25346;DHT22;13300;51.032;3.710;2022-10-13T11:59:53;16.30;99.90
25346;DHT22;13300;51.032;3.710;2022-10-13T12:02:21;16.20;99.90
25346;DHT22;13300;51.032;3.710;2022-10-13T12:05:27;16.20;99.90
25346;DHT22;13300;51.032;3.710;2022-10-13T12:07:58;16.20;99.90
25346;DHT22;13300;51.032;3.710;2022-10-13T12:10:34;16.20;99.90
25346;DHT22;13300;51.032;3.710;2022-10-13T12:13:01;16.00;99.90
25346;DHT22;13300;51.032;3.710;2022-10-13T12:15:36;15.90;99.90
25346;DHT22;13300;51.032;3.710;2022-10-13T12:18:18;15.80;99.90
25346;DHT22;13300;51.032;3.710;2022-10-13T12:20:51;16.00;99.90
25346;DHT22;13300;51.032;3.710;2022-10-13T12:23:16;16.30;99.90
25346;DHT22;13300;51.032;3.710;2022-10-13T12:25:46;16.20;99.90
25346;DHT22;13300;51.032;3.710;2022-10-13T12:28:17;16.30;99.90
25346;DHT22;13300;51.032;3.710;2022-10-13T12:30:51;16.60;99.90
25346;DHT22;13300;51.032;3.710;2022-10-13T12:33:32;16.60;99.90
25346;DHT22;13300;51.032;3.710;2022-10-13T12:36:13;16.40;99.90
25346;DHT22;13300;51.032;3.710;2022-10-13T12:38:47;16.50;99.90
25346;DHT22;13300;51.032;3.710;2022-10-13T12:41:24;16.80;99.90
25346;DHT22;13300;51.032;3.710;2022-10-13T12:43:51;16.80;99.90
25346;DHT22;13300;51.032;3.710;2022-10-13T12:49:09;16.70;99.90
25346;DHT22;13300;51.032;3.710;2022-10-13T12:51:37;16.60;99.90
25346;DHT22;13300;51.032;3.710;2022-10-13T12:54:11;16.60;99.90
25346;DHT22;13300;51.032;3.710;2022-10-13T12:56:41;16.60;99.90
25346;DHT22;13300;51.032;3.710;2022-10-13T12:59:16;16.60;99.90
25346;DHT22;13300;51.032;3.710;2022-10-13T13:01:42;16.70;99.90
25346;DHT22;13300;51.032;3.710;2022-10-13T13:04:38;16.80;99.90
25346;DHT22;13300;51.032;3.710;2022-10-13T13:07:04;16.60;99.90
25346;DHT22;13300;51.032;3.710;2022-10-13T13:09:31;16.70;99.90
25346;DHT22;13300;51.032;3.710;2022-10-13T13:12:14;16.80;99.90
25346;DHT22;13300;51.032;3.710;2022-10-13T13:14:47;16.60;99.90
25346;DHT22;13300;51.032;3.710;2022-10-13T13:17:28;16.40;99.90
25346;DHT22;13300;51.032;3.710;2022-10-13T13:19:55;16.40;99.90
25346;DHT22;13300;51.032;3.710;2022-10-13T13:22:23;16.40;99.90
25346;DHT22;13300;51.032;3.710;2022-10-13T13:24:49;16.20;99.90
25346;DHT22;13300;51.032;3.710;2022-10-13T13:27:39;16.30;99.90
25346;DHT22;13300;51.032;3.710;2022-10-13T13:30:16;16.20;99.90
25346;DHT22;13300;51.032;3.710;2022-10-13T13:32:42;16.10;99.90
25346;DHT22;13300;51.032;3.710;2022-10-13T13:35:08;16.00;99.90
25346;DHT22;13300;51.032;3.710;2022-10-13T13:37:54;16.00;99.90
25346;DHT22;13300;51.032;3.710;2022-10-13T13:40:22;15.80;99.90
25346;DHT22;13300;51.032;3.710;2022-10-13T13:42:48;15.60;99.90
25346;DHT22;13300;51.032;3.710;2022-10-13T13:45:15;15.70;99.90
25346;DHT22;13300;51.032;3.710;2022-10-13T13:47:41;15.80;99.90
25346;DHT22;13300;51.032;3.710;2022-10-13T13:50:29;15.70;99.90
25346;DHT22;13300;51.032;3.710;2022-10-13T13:52:56;15.70;99.90
25346;DHT22;13300;51.032;3.710;2022-10-13T13:55:22;15.60;99.90
25346;DHT22;13300;51.032;3.710;2022-10-13T13:57:48;15.60;99.90
25346;DHT22;13300;51.032;3.710;2022-10-13T14:00:15;15.70;99.90
25346;DHT22;13300;51.032;3.710;2022-10-13T14:02:42;15.80;99.90
25346;DHT22;13300;51.032;3.710;2022-10-13T14:05:08;15.80;99.90
25346;DHT22;13300;51.032;3.710;2022-10-13T14:07:35;15.70;99.90
25346;DHT22;13300;51.032;3.710;2022-10-13T14:10:01;15.70;99.90
25346;DHT22;13300;51.032;3.710;2022-10-13T14:12:28;15.80;99.90
25346;DHT22;13300;51.032;3.710;2022-10-13T14:14:54;16.00;99.90
25346;DHT22;13300;51.032;3.710;2022-10-13T14:17:21;15.90;99.90
25346;DHT22;13300;51.032;3.710;2022-10-13T14:19:47;16.10;99.90
25346;DHT22;13300;51.032;3.710;2022-10-13T14:22:12;16.00;99.90
25346;DHT22;13300;51.032;3.710;2022-10-13T14:24:38;15.90;99.90
25346;DHT22;13300;51.032;3.710;2022-10-13T14:27:04;15.90;99.90
25346;DHT22;13300;51.032;3.710;2022-10-13T14:29:30;15.90;99.90
25346;DHT22;13300;51.032;3.710;2022-10-13T14:31:55;16.00;99.90
25346;DHT22;13300;51.032;3.710;2022-10-13T14:34:21;15.90;99.90
25346;DHT22;13300;51.032;3.710;2022-10-13T14:36:47;16.00;99.90
25346;DHT22;13300;51.032;3.710;2022-10-13T14:39:12;16.10;99.90
25346;DHT22;13300;51.032;3.710;2022-10-13T14:41:38;16.20;99.90
25346;DHT22;13300;51.032;3.710;2022-10-13T14:44:04;16.30;99.90
25346;DHT22;13300;51.032;3.710;2022-10-13T14:46:30;16.40;99.90
25346;DHT22;13300;51.032;3.710;2022-10-13T14:48:55;16.50;99.90
25346;DHT22;13300;51.032;3.710;2022-10-13T14:51:23;16.50;99.90
25346;DHT22;13300;51.032;3.710;2022-10-13T14:53:49;16.50;99.90
25346;DHT22;13300;51.032;3.710;2022-10-13T14:56:23;16.30;99.90
25346;DHT22;13300;51.032;3.710;2022-10-13T14:58:51;16.30;99.90
25346;DHT22;13300;51.032;3.710;2022-10-13T15:01:17;16.40;99.90
25346;DHT22;13300;51.032;3.710;2022-10-13T15:03:43;16.10;99.90
25346;DHT22;13300;51.032;3.710;2022-10-13T15:06:16;16.10;99.90
25346;DHT22;13300;51.032;3.710;2022-10-13T15:08:43;16.00;99.90
25346;DHT22;13300;51.032;3.710;2022-10-13T15:11:09;16.30;99.90
25346;DHT22;13300;51.032;3.710;2022-10-13T15:13:36;16.30;99.90
25346;DHT22;13300;51.032;3.710;2022-10-13T15:16:02;16.30;99.90
25346;DHT22;13300;51.032;3.710;2022-10-13T15:18:33;16.10;99.90
25346;DHT22;13300;51.032;3.710;2022-10-13T15:21:00;16.10;99.90
25346;DHT22;13300;51.032;3.710;2022-10-13T15:23:26;16.20;99.90
25346;DHT22;13300;51.032;3.710;2022-10-13T15:25:54;16.20;99.90
25346;DHT22;13300;51.032;3.710;2022-10-13T15:28:29;16.20;99.90
25346;DHT22;13300;51.032;3.710;2022-10-13T15:30:57;16.20;99.90
25346;DHT22;13300;51.032;3.710;2022-10-13T15:33:22;16.20;99.90
25346;DHT22;13300;51.032;3.710;2022-10-13T15:35:49;16.30;99.90
25346;DHT22;13300;51.032;3.710;2022-10-13T15:38:15;16.10;99.90
25346;DHT22;13300;51.032;3.710;2022-10-13T15:40:41;16.10;99.90
25346;DHT22;13300;51.032;3.710;2022-10-13T15:43:07;16.00;99.90
25346;DHT22;13300;51.032;3.710;2022-10-13T15:45:33;16.00;99.90
25346;DHT22;13300;51.032;3.710;2022-10-13T15:47:59;16.10;99.90
25346;DHT22;13300;51.032;3.710;2022-10-13T15:50:25;16.00;99.90
25346;DHT22;13300;51.032;3.710;2022-10-13T15:52:50;16.00;99.90
25346;DHT22;13300;51.032;3.710;2022-10-13T15:55:16;16.10;99.90
25346;DHT22;13300;51.032;3.710;2022-10-13T15:57:42;15.90;99.90
25346;DHT22;13300;51.032;3.710;2022-10-13T16:00:10;15.80;99.90
25346;DHT22;13300;51.032;3.710;2022-10-13T16:02:36;15.90;99.90
25346;DHT22;13300;51.032;3.710;2022-10-13T16:05:02;15.90;99.90
25346;DHT22;13300;51.032;3.710;2022-10-13T16:07:33;15.50;99.90
25346;DHT22;13300;51.032;3.710;2022-10-13T16:09:59;15.50;99.90
25346;DHT22;13300;51.032;3.710;2022-10-13T16:12:27;15.50;99.90
25346;DHT22;13300;51.032;3.710;2022-10-13T16:14:53;15.60;99.90
25346;DHT22;13300;51.032;3.710;2022-10-13T16:17:19;15.50;99.90
25346;DHT22;13300;51.032;3.710;2022-10-13T16:19:45;15.70;99.90
25346;DHT22;13300;51.032;3.710;2022-10-13T16:22:10;15.70;99.90
25346;DHT22;13300;51.032;3.710;2022-10-13T16:24:36;15.70;99.90
25346;DHT22;13300;51.032;3.710;2022-10-13T16:27:02;15.70;99.90
25346;DHT22;13300;51.032;3.710;2022-10-13T16:29:28;15.70;99.90
25346;DHT22;13300;51.032;3.710;2022-10-13T16:31:54;15.70;99.90
25346;DHT22;13300;51.032;3.710;2022-10-13T16:34:19;15.60;99.90
25346;DHT22;13300;51.032;3.710;2022-10-13T16:36:47;15.70;99.90
25346;DHT22;13300;51.032;3.710;2022-10-13T16:39:13;15.50;99.90
25346;DHT22;13300;51.032;3.710;2022-10-13T16:41:38;15.60;99.90
25346;DHT22;13300;51.032;3.710;2022-10-13T16:44:04;15.60;99.90
25346;DHT22;13300;51.032;3.710;2022-10-13T16:46:30;15.70;99.90
25346;DHT22;13300;51.032;3.710;2022-10-13T16:48:57;15.70;99.90
25346;DHT22;13300;51.032;3.710;2022-10-13T16:51:24;15.80;99.90
25346;DHT22;13300;51.032;3.710;2022-10-13T16:53:55;15.80;99.90
25346;DHT22;13300;51.032;3.710;2022-10-13T16:56:23;15.80;99.90
25346;DHT22;13300;51.032;3.710;2022-10-13T16:58:51;15.80;99.90
25346;DHT22;13300;51.032;3.710;2022-10-13T17:01:18;15.60;99.90
25346;DHT22;13300;51.032;3.710;2022-10-13T17:03:44;15.50;99.90
25346;DHT22;13300;51.032;3.710;2022-10-13T17:06:11;15.60;99.90
25346;DHT22;13300;51.032;3.710;2022-10-13T17:08:38;15.50;99.90
25346;DHT22;13300;51.032;3.710;2022-10-13T17:11:05;15.60;99.90
25346;DHT22;13300;51.032;3.710;2022-10-13T17:13:35;15.50;99.90
25346;DHT22;13300;51.032;3.710;2022-10-13T17:16:01;15.50;99.90